Time;durP1;ratioP1;P1;durP2;ratioP2;P2;SDS_P1;SDS_P2;PMS_P1;PMS_P2;Temp;Humidity;BMP_temperature;BMP_pressure;BME280_temperature;BME280_humidity;BME280_pressure;Samples;Min_cycle;Max_cycle;Signal;HPM_P1;HPM_P2
2021/07/15 00:00:43;;;;;;;1.43;1.10;;;28.60;42.40;;;;;;4162676;28;20144;-46
2021/07/15 00:02:45;;;;;;;2.42;1.42;;;28.90;42.00;;;;;;4167062;28;20040;-46
2021/07/15 00:04:47;;;;;;;2.25;1.35;;;29.10;42.00;;;;;;4166191;28;20158;-48
2021/07/15 00:06:49;;;;;;;1.77;1.15;;;29.10;42.50;;;;;;4165695;28;20039;-47
2021/07/15 00:08:59;;;;;;;1.67;1.10;;;28.90;43.50;;;;;;4160727;28;20094;-47
2021/07/15 00:11:07;;;;;;;1.77;1.13;;;28.70;44.10;;;;;;4164933;28;20472;-47
2021/07/15 00:13:10;;;;;;;1.92;1.23;;;28.50;44.50;;;;;;4162760;28;20025;-47
2021/07/15 00:15:14;;;;;;;1.65;1.27;;;28.30;45.00;;;;;;4164460;28;20021;-51
2021/07/15 00:17:17;;;;;;;2.05;1.13;;;28.10;45.30;;;;;;4161797;28;20029;-49
2021/07/15 00:19:19;;;;;;;;;;;27.90;45.80;;;;;;4162743;28;20529;-51
2021/07/15 00:21:23;;;;;;;2.35;1.40;;;27.80;45.80;;;;;;4158366;28;20457;-56
2021/07/15 00:23:26;;;;;;;1.80;1.20;;;27.60;45.90;;;;;;4165935;28;20055;-48
2021/07/15 00:25:28;;;;;;;4.38;1.17;;;27.50;46.50;;;;;;4157468;28;20510;-50
2021/07/15 00:27:30;;;;;;;2.95;1.20;;;27.40;46.60;;;;;;4162287;28;20063;-52
2021/07/15 00:29:32;;;;;;;2.33;1.50;;;27.20;46.30;;;;;;4164815;28;20032;-51
2021/07/15 00:31:34;;;;;;;2.20;1.35;;;27.10;46.60;;;;;;4169796;28;20036;-52
2021/07/15 00:33:36;;;;;;;1.75;1.15;;;27.10;46.80;;;;;;4161803;28;20497;-47
2021/07/15 00:35:39;;;;;;;1.83;1.38;;;26.90;46.80;;;;;;4165532;28;20090;-50
2021/07/15 00:37:43;;;;;;;1.88;1.30;;;26.90;47.00;;;;;;4157284;28;20034;-50
2021/07/15 00:39:45;;;;;;;3.17;1.52;;;26.80;47.20;;;;;;4157628;28;20033;-47
2021/07/15 00:41:47;;;;;;;1.90;1.23;;;26.70;47.30;;;;;;4164647;28;20029;-48
2021/07/15 00:43:50;;;;;;;2.45;1.17;;;26.60;47.40;;;;;;4158392;28;20037;-50
2021/07/15 00:45:52;;;;;;;2.47;1.37;;;26.50;47.30;;;;;;4161074;28;20025;-49
2021/07/15 00:47:54;;;;;;;1.58;1.27;;;26.50;47.50;;;;;;4162410;28;20060;-53
2021/07/15 00:49:56;;;;;;;1.80;1.13;;;26.40;47.60;;;;;;4162138;28;20313;-52
2021/07/15 00:51:58;;;;;;;1.65;1.08;;;26.30;47.70;;;;;;4163015;28;20029;-51
2021/07/15 00:54:01;;;;;;;3.53;1.20;;;26.20;47.80;;;;;;4169618;28;20032;-52
2021/07/15 00:56:03;;;;;;;3.70;1.40;;;26.20;48.00;;;;;;4163534;28;20047;-50
2021/07/15 00:58:08;;;;;;;1.70;1.33;;;26.10;48.10;;;;;;4161039;28;20037;-52
2021/07/15 01:00:11;;;;;;;1.52;1.00;;;26.10;48.20;;;;;;4166869;28;20609;-51
2021/07/15 01:02:13;;;;;;;1.55;1.10;;;26.00;48.30;;;;;;4162702;28;20049;-52
2021/07/15 01:04:16;;;;;;;1.65;1.30;;;25.90;48.40;;;;;;4161077;28;20104;-49
2021/07/15 01:06:18;;;;;;;2.80;1.30;;;25.90;48.60;;;;;;4158416;28;20033;-50
2021/07/15 01:08:21;;;;;;;1.57;1.10;;;25.80;48.70;;;;;;4165340;28;20025;-50
2021/07/15 01:10:30;;;;;;;2.75;1.38;;;25.70;48.70;;;;;;4164400;28;20276;-50
2021/07/15 01:12:47;;;;;;;2.38;1.48;;;25.70;48.80;;;;;;4159985;28;20039;-49
2021/07/15 01:15:12;;;;;;;4.80;1.48;;;25.70;48.90;;;;;;4163915;28;20025;-54
2021/07/15 01:17:22;;;;;;;2.00;1.40;;;25.60;49.00;;;;;;4164801;28;20025;-49
2021/07/15 01:20:13;;;;;;;2.53;1.17;;;25.50;49.10;;;;;;4165738;28;20045;-49
2021/07/15 01:22:57;;;;;;;1.48;1.15;;;25.40;49.20;;;;;;4161487;28;20061;-53
2021/07/15 01:25:16;;;;;;;2.78;1.27;;;25.40;49.30;;;;;;4158878;28;20441;-51
2021/07/15 01:27:43;;;;;;;4.40;1.30;;;25.30;49.40;;;;;;4172834;28;20174;-56
2021/07/15 01:29:57;;;;;;;2.45;1.30;;;25.30;49.60;;;;;;4165451;28;20059;-49
2021/07/15 01:32:04;;;;;;;2.17;1.40;;;25.20;49.60;;;;;;4167201;28;20268;-51
2021/07/15 01:34:13;;;;;;;2.15;1.58;;;25.10;49.60;;;;;;4162068;28;20065;-44
2021/07/15 01:36:19;;;;;;;1.85;1.33;;;25.10;49.80;;;;;;4166621;28;20391;-49
2021/07/15 01:38:27;;;;;;;3.03;1.15;;;25.00;49.90;;;;;;4165588;28;20163;-51
2021/07/15 01:40:45;;;;;;;1.55;1.30;;;25.10;50.10;;;;;;4163279;28;20079;-53
2021/07/15 01:42:56;;;;;;;2.15;1.13;;;25.00;50.20;;;;;;4164703;28;20595;-47
2021/07/15 01:44:59;;;;;;;2.00;1.40;;;25.00;50.30;;;;;;4161125;28;20041;-45
2021/07/15 01:47:01;;;;;;;2.50;1.43;;;24.90;50.40;;;;;;4164136;28;20035;-49
2021/07/15 01:49:05;;;;;;;4.63;1.48;;;24.90;50.60;;;;;;4166892;28;20044;-45
2021/07/15 01:51:09;;;;;;;1.92;1.42;;;24.80;50.70;;;;;;4162446;28;20033;-46
2021/07/15 01:53:11;;;;;;;1.60;1.10;;;24.80;50.90;;;;;;4167047;28;20029;-47
2021/07/15 01:55:14;;;;;;;3.22;1.10;;;24.80;50.90;;;;;;4162260;28;20211;-47
2021/07/15 01:57:18;;;;;;;2.85;1.75;;;24.70;50.80;;;;;;4167731;28;20029;-47
2021/07/15 01:59:24;;;;;;;2.05;1.33;;;24.70;51.00;;;;;;4166270;28;20501;-46
2021/07/15 02:01:27;;;;;;;1.52;1.23;;;24.70;51.00;;;;;;4164293;28;20096;-49
2021/07/15 02:03:30;;;;;;;1.83;1.33;;;24.70;51.40;;;;;;4165257;28;20037;-49
2021/07/15 02:05:34;;;;;;;2.38;1.23;;;24.60;51.20;;;;;;4160376;28;20399;-48
2021/07/15 02:07:40;;;;;;;1.55;1.10;;;24.60;51.30;;;;;;4162120;28;20064;-50
2021/07/15 02:09:43;;;;;;;3.22;1.40;;;24.60;51.60;;;;;;4158609;28;20533;-50
2021/07/15 02:11:48;;;;;;;2.08;1.20;;;24.60;51.60;;;;;;4157931;28;20597;-49
2021/07/15 02:13:51;;;;;;;4.53;1.10;;;24.60;51.60;;;;;;4162330;28;20052;-44
2021/07/15 02:15:55;;;;;;;2.20;1.42;;;24.60;51.70;;;;;;4158767;28;20101;-47
2021/07/15 02:17:59;;;;;;;2.15;1.20;;;24.50;51.60;;;;;;4159772;28;20036;-47
2021/07/15 02:20:05;;;;;;;2.75;1.25;;;24.50;51.90;;;;;;4160010;28;20033;-48
2021/07/15 02:22:08;;;;;;;2.20;1.40;;;24.50;51.80;;;;;;4155066;28;20116;-46
2021/07/15 02:24:13;;;;;;;2.80;1.23;;;24.50;51.90;;;;;;4166015;28;20047;-50
2021/07/15 02:26:17;;;;;;;3.10;1.23;;;24.50;51.90;;;;;;4161015;28;20029;-48
2021/07/15 02:28:21;;;;;;;2.25;1.30;;;24.40;52.00;;;;;;4160727;28;20217;-48
2021/07/15 02:30:24;;;;;;;2.40;1.40;;;24.40;52.00;;;;;;4162169;28;20036;-46
2021/07/15 02:32:28;;;;;;;1.75;1.30;;;24.40;52.00;;;;;;4167146;28;20957;-50
2021/07/15 02:34:58;;;;;;;2.03;1.33;;;24.40;52.20;;;;;;4166532;28;21183;-50
2021/07/15 02:37:02;;;;;;;1.55;1.10;;;24.40;52.30;;;;;;4161344;28;20044;-49
2021/07/15 02:39:09;;;;;;;2.00;1.20;;;24.30;52.30;;;;;;4169607;28;20105;-47
2021/07/15 02:41:11;;;;;;;1.65;1.30;;;24.30;52.30;;;;;;4169074;28;20028;-47
2021/07/15 02:43:14;;;;;;;3.78;1.45;;;24.30;52.40;;;;;;4166061;28;20056;-47
2021/07/15 02:45:20;;;;;;;1.77;1.50;;;24.30;52.50;;;;;;4169569;28;20121;-49
2021/07/15 02:47:24;;;;;;;1.50;1.33;;;24.20;52.50;;;;;;4169622;28;20060;-46
2021/07/15 02:49:26;;;;;;;1.50;1.10;;;24.20;52.60;;;;;;4164915;28;20490;-50
2021/07/15 02:51:30;;;;;;;1.70;1.20;;;24.20;52.70;;;;;;4161088;28;20025;-48
2021/07/15 02:53:33;;;;;;;3.08;1.20;;;24.20;52.80;;;;;;4165083;28;20558;-46
2021/07/15 02:55:37;;;;;;;1.58;1.20;;;24.20;52.90;;;;;;4158847;28;20093;-50
2021/07/15 02:57:48;;;;;;;1.35;1.02;;;24.20;53.00;;;;;;4163881;28;20101;-48
2021/07/15 03:00:05;;;;;;;1.70;1.40;;;24.20;53.20;;;;;;4162948;28;20117;-52
2021/07/15 03:02:32;;;;;;;2.88;1.38;;;24.10;53.00;;;;;;4169070;28;20057;-45
2021/07/15 03:04:43;;;;;;;1.92;1.25;;;24.10;53.10;;;;;;4162626;28;20025;-47
2021/07/15 03:06:45;;;;;;;2.13;1.20;;;24.10;53.20;;;;;;4164224;28;22254;-47
2021/07/15 03:08:51;;;;;;;1.67;1.30;;;24.10;53.30;;;;;;4163192;28;20040;-47
2021/07/15 03:10:55;;;;;;;1.20;1.10;;;24.00;53.40;;;;;;4164743;28;20081;-52
2021/07/15 03:12:58;;;;;;;2.00;1.25;;;24.00;53.40;;;;;;4171799;28;20044;-47
2021/07/15 03:15:01;;;;;;;1.10;1.00;;;24.00;53.60;;;;;;4167499;28;20362;-46
2021/07/15 03:17:06;;;;;;;5.95;1.45;;;24.10;53.60;;;;;;4163085;28;20068;-47
2021/07/15 03:19:09;;;;;;;1.48;1.08;;;24.00;53.50;;;;;;4157515;28;20021;-47
2021/07/15 03:21:12;;;;;;;1.10;1.00;;;24.00;53.70;;;;;;4169847;28;20017;-52
2021/07/15 03:23:22;;;;;;;1.58;1.00;;;24.00;53.60;;;;;;4167855;28;20193;-46
2021/07/15 03:25:25;;;;;;;1.40;0.95;;;24.00;53.60;;;;;;4174110;28;20033;-46
2021/07/15 03:27:30;;;;;;;2.65;1.13;;;24.00;53.70;;;;;;4172706;28;20158;-50
2021/07/15 03:29:35;;;;;;;1.50;1.20;;;24.00;53.80;;;;;;4167614;28;20038;-49
2021/07/15 03:31:37;;;;;;;1.33;1.10;;;24.00;53.90;;;;;;4172388;28;20033;-47
2021/07/15 03:33:40;;;;;;;1.13;1.02;;;24.00;54.00;;;;;;4167543;28;20442;-49
2021/07/15 03:35:46;;;;;;;1.50;1.00;;;24.00;54.20;;;;;;4172625;28;20021;-44
2021/07/15 03:37:50;;;;;;;1.13;0.98;;;24.00;54.10;;;;;;4173585;28;20029;-48
2021/07/15 03:39:54;;;;;;;1.40;1.00;;;24.00;54.30;;;;;;4169917;28;20108;-51
2021/07/15 03:41:56;;;;;;;1.70;1.33;;;23.90;54.30;;;;;;4168428;28;20484;-52
2021/07/15 03:43:58;;;;;;;1.90;1.30;;;23.90;55.00;;;;;;4168547;28;20524;-45
2021/07/15 03:46:02;;;;;;;1.80;1.23;;;23.90;54.30;;;;;;4163662;28;20191;-49
2021/07/15 03:48:05;;;;;;;1.02;0.90;;;24.00;54.40;;;;;;4171742;28;21069;-52
2021/07/15 03:50:08;;;;;;;1.35;1.17;;;24.00;54.30;;;;;;4168353;28;20127;-53
2021/07/15 03:52:16;;;;;;;2.00;1.02;;;24.00;54.30;;;;;;4163957;28;20087;-48
2021/07/15 03:54:21;;;;;;;1.77;1.10;;;24.00;54.40;;;;;;4167873;28;20282;-47
2021/07/15 03:56:23;;;;;;;1.67;1.00;;;24.00;54.50;;;;;;4169168;28;20136;-47
2021/07/15 03:58:26;;;;;;;1.45;1.15;;;24.00;54.60;;;;;;4169923;28;20041;-44
2021/07/15 04:00:28;;;;;;;1.15;0.90;;;24.00;54.60;;;;;;4165780;28;20383;-49
2021/07/15 04:02:32;;;;;;;2.13;1.10;;;24.00;54.70;;;;;;4170572;28;20072;-49
2021/07/15 04:04:34;;;;;;;;;;;24.00;54.50;;;;;;4165736;28;20025;-50
2021/07/15 04:06:37;;;;;;;1.35;1.23;;;23.90;54.50;;;;;;4167435;28;20003;-49
2021/07/15 04:08:43;;;;;;;1.20;1.08;;;23.90;54.60;;;;;;4165643;28;20345;-47
2021/07/15 04:10:48;;;;;;;1.95;1.23;;;24.00;54.70;;;;;;4168926;28;20062;-47
2021/07/15 04:12:51;;;;;;;1.20;0.90;;;23.90;54.70;;;;;;4162935;28;20359;-49
2021/07/15 04:15:09;;;;;;;2.65;1.27;;;23.90;54.80;;;;;;4163746;28;20043;-52
2021/07/15 04:17:14;;;;;;;1.95;1.33;;;23.90;54.80;;;;;;4165583;28;20041;-53
2021/07/15 04:19:17;;;;;;;1.48;1.25;;;23.90;54.90;;;;;;4165720;28;20119;-51
2021/07/15 04:21:19;;;;;;;1.57;1.07;;;23.90;54.90;;;;;;4171453;28;20330;-47
2021/07/15 04:23:23;;;;;;;1.27;1.00;;;23.90;54.80;;;;;;4170255;28;20396;-51
2021/07/15 04:25:26;;;;;;;1.58;1.13;;;23.90;55.00;;;;;;4173154;28;20432;-51
2021/07/15 04:27:30;;;;;;;2.35;1.33;;;23.90;54.90;;;;;;4170328;28;20112;-51
2021/07/15 04:29:31;;;;;;;;;;;23.90;55.00;;;;;;4169366;28;20029;-53
2021/07/15 04:32:01;;;;;;;1.80;1.13;;;23.90;55.00;;;;;;4166064;28;19909;-52
2021/07/15 04:34:04;;;;;;;2.55;1.00;;;23.90;55.00;;;;;;4165672;28;20290;-52
2021/07/15 04:36:09;;;;;;;;;;;24.00;55.00;;;;;;4169156;28;20055;-50
2021/07/15 04:38:13;;;;;;;1.10;1.00;;;23.90;54.90;;;;;;4167431;28;20437;-54
2021/07/15 04:40:19;;;;;;;2.13;1.13;;;24.00;55.20;;;;;;4165640;28;20055;-48
2021/07/15 04:42:23;;;;;;;1.38;0.95;;;23.90;55.20;;;;;;4165531;28;20028;-53
2021/07/15 04:44:30;;;;;;;1.75;1.10;;;23.90;55.10;;;;;;4164102;28;20415;-50
2021/07/15 04:46:35;;;;;;;2.83;1.40;;;23.90;55.30;;;;;;4163170;28;20434;-50
2021/07/15 04:48:37;;;;;;;2.05;0.98;;;23.90;55.40;;;;;;4161204;28;20035;-52
2021/07/15 04:50:39;;;;;;;1.23;1.00;;;23.90;55.40;;;;;;4160771;28;20028;-48
2021/07/15 04:52:44;;;;;;;1.35;1.00;;;23.90;55.30;;;;;;4162222;28;20086;-49
2021/07/15 04:54:50;;;;;;;1.42;1.20;;;23.90;55.30;;;;;;4162292;28;20295;-51
2021/07/15 04:56:55;;;;;;;2.40;1.02;;;23.90;55.30;;;;;;4159048;28;20025;-52
2021/07/15 04:59:02;;;;;;;1.27;1.17;;;23.90;55.30;;;;;;4159825;28;20202;-46
2021/07/15 05:01:05;;;;;;;1.65;1.23;;;24.00;55.40;;;;;;4162039;28;20104;-51
2021/07/15 05:03:24;;;;;;;1.52;1.20;;;24.10;55.20;;;;;;4161092;28;20462;-51
2021/07/15 05:05:26;;;;;;;1.90;1.20;;;24.20;55.20;;;;;;4158943;28;20089;-47
2021/07/15 05:07:29;;;;;;;1.10;1.00;;;24.20;54.90;;;;;;4162532;28;20033;-51
2021/07/15 05:09:31;;;;;;;1.85;1.13;;;24.30;54.80;;;;;;4164710;28;20047;-50
2021/07/15 05:11:34;;;;;;;1.83;1.10;;;24.30;54.70;;;;;;4164626;28;20504;-48
2021/07/15 05:13:37;;;;;;;1.17;1.00;;;24.30;54.70;;;;;;4159524;28;20032;-53
2021/07/15 05:15:39;;;;;;;1.23;1.08;;;24.40;54.70;;;;;;4164500;28;20033;-51
2021/07/15 05:17:41;;;;;;;7.68;1.40;;;24.40;54.50;;;;;;4167915;28;20095;-48
2021/07/15 05:19:43;;;;;;;1.50;1.30;;;24.50;54.40;;;;;;4168121;28;20056;-50
2021/07/15 05:21:46;;;;;;;1.10;1.00;;;24.50;54.30;;;;;;4164461;28;20032;-49
2021/07/15 05:23:47;;;;;;;;;;;24.60;54.20;;;;;;4167479;28;20041;-52
2021/07/15 05:25:52;;;;;;;0.95;0.90;;;24.60;54.20;;;;;;4167738;28;20461;-53
2021/07/15 05:27:54;;;;;;;1.42;1.20;;;24.60;54.00;;;;;;4167328;28;20138;-53
2021/07/15 05:29:56;;;;;;;1.48;1.05;;;24.60;53.90;;;;;;4157072;28;20279;-51
2021/07/15 05:31:59;;;;;;;2.13;1.50;;;24.60;53.90;;;;;;4161628;28;20039;-53
2021/07/15 05:34:01;;;;;;;1.60;1.25;;;24.60;53.90;;;;;;4164183;28;20036;-49
2021/07/15 05:36:03;;;;;;;2.13;1.20;;;24.60;54.10;;;;;;4166189;28;20113;-47
2021/07/15 05:38:05;;;;;;;1.20;1.00;;;24.50;54.30;;;;;;4161285;28;20031;-45
2021/07/15 05:40:09;;;;;;;1.30;1.10;;;24.50;54.40;;;;;;4165497;28;20035;-53
2021/07/15 05:42:12;;;;;;;1.52;1.08;;;24.50;54.60;;;;;;4159297;28;20063;-51
2021/07/15 05:44:16;;;;;;;1.20;1.10;;;24.50;54.70;;;;;;4157804;28;20032;-52
2021/07/15 05:46:19;;;;;;;1.67;1.10;;;24.50;54.70;;;;;;4158146;28;20025;-48
2021/07/15 05:48:24;;;;;;;1.20;1.10;;;24.40;54.80;;;;;;4159817;28;20025;-51
2021/07/15 05:50:27;;;;;;;3.35;1.38;;;24.40;54.90;;;;;;4157219;28;21638;-51
2021/07/15 05:52:30;;;;;;;1.30;1.10;;;24.30;55.00;;;;;;4161352;28;20035;-50
2021/07/15 05:54:35;;;;;;;1.75;0.98;;;24.30;55.10;;;;;;4165840;28;20285;-47
2021/07/15 05:56:38;;;;;;;1.17;1.00;;;24.30;55.30;;;;;;4164242;28;21295;-50
2021/07/15 05:58:41;;;;;;;1.60;0.98;;;24.20;55.30;;;;;;4164277;28;20430;-50
2021/07/15 06:00:43;;;;;;;1.45;1.20;;;24.20;55.40;;;;;;4162215;28;20141;-47
2021/07/15 06:02:46;;;;;;;2.25;1.50;;;24.20;55.60;;;;;;4158721;28;20056;-50
2021/07/15 06:04:49;;;;;;;1.83;1.20;;;24.20;56.20;;;;;;4164245;28;20741;-46
2021/07/15 06:06:52;;;;;;;1.33;0.90;;;24.10;55.60;;;;;;4161251;28;20044;-47
2021/07/15 06:08:54;;;;;;;2.22;1.10;;;24.10;55.80;;;;;;4161116;28;20037;-47
2021/07/15 06:10:57;;;;;;;2.73;1.50;;;24.10;55.70;;;;;;4166346;28;20032;-48
2021/07/15 06:12:59;;;;;;;1.50;0.98;;;24.10;55.80;;;;;;4161411;28;20117;-46
2021/07/15 06:15:01;;;;;;;1.77;1.13;;;24.10;55.80;;;;;;4163030;28;20112;-52
2021/07/15 06:17:04;;;;;;;2.88;1.33;;;24.00;55.90;;;;;;4161392;28;20040;-47
2021/07/15 06:19:06;;;;;;;1.95;1.25;;;24.00;55.90;;;;;;4158757;28;20491;-53
2021/07/15 06:21:11;;;;;;;4.22;1.42;;;24.00;56.00;;;;;;4160254;28;20434;-50
2021/07/15 06:23:13;;;;;;;1.95;1.30;;;24.00;56.10;;;;;;4159889;28;20056;-52
2021/07/15 06:25:16;;;;;;;2.38;1.20;;;24.00;56.10;;;;;;4156440;28;20025;-45
2021/07/15 06:27:18;;;;;;;;;;;24.00;56.10;;;;;;4156399;28;20029;-47
2021/07/15 06:29:21;;;;;;;3.13;1.33;;;23.90;56.00;;;;;;4157490;28;20378;-44
2021/07/15 06:31:25;;;;;;;1.85;1.08;;;23.90;56.00;;;;;;4158536;28;20041;-46
2021/07/15 06:33:28;;;;;;;4.13;1.35;;;23.90;56.00;;;;;;4162761;28;20036;-46
2021/07/15 06:35:31;;;;;;;3.22;1.27;;;23.90;56.20;;;;;;4158915;28;20076;-46
2021/07/15 06:37:40;;;;;;;1.95;1.17;;;23.80;56.10;;;;;;4151618;28;20032;-45
2021/07/15 06:39:43;;;;;;;1.80;1.23;;;23.80;56.20;;;;;;4157929;28;20469;-48
2021/07/15 06:41:48;;;;;;;2.75;1.23;;;23.80;56.20;;;;;;4158784;28;20140;-48
2021/07/15 06:43:50;;;;;;;2.45;1.20;;;23.80;56.10;;;;;;4161447;28;21185;-45
2021/07/15 06:45:52;;;;;;;2.78;1.33;;;23.80;56.00;;;;;;4156946;28;20530;-50
2021/07/15 06:47:54;;;;;;;1.67;0.97;;;23.80;56.20;;;;;;4166299;28;20029;-50
2021/07/15 06:49:57;;;;;;;1.55;1.17;;;23.70;56.20;;;;;;4166035;28;20275;-47
2021/07/15 06:51:59;;;;;;;2.50;1.15;;;23.70;56.30;;;;;;4166916;28;20156;-52
2021/07/15 06:54:01;;;;;;;1.40;1.10;;;23.70;56.60;;;;;;4166187;28;20553;-48
2021/07/15 06:56:03;;;;;;;4.45;1.20;;;23.60;56.40;;;;;;4165359;28;20060;-48
2021/07/15 06:58:06;;;;;;;2.50;1.42;;;23.60;56.50;;;;;;4164401;28;20029;-50
2021/07/15 07:00:12;;;;;;;3.53;1.52;;;23.60;56.60;;;;;;4167664;28;20047;-47
2021/07/15 07:02:14;;;;;;;2.17;1.38;;;23.60;56.60;;;;;;4168957;28;20361;-44
2021/07/15 07:04:16;;;;;;;1.75;1.17;;;23.60;56.70;;;;;;4167255;28;20021;-47
2021/07/15 07:06:18;;;;;;;3.63;1.30;;;23.60;56.70;;;;;;4172777;28;20029;-45
2021/07/15 07:08:20;;;;;;;3.72;1.48;;;23.50;56.70;;;;;;4173849;28;20021;-47
2021/07/15 07:10:22;;;;;;;2.55;1.75;;;23.50;56.30;;;;;;4172006;28;20087;-53
2021/07/15 07:12:24;;;;;;;3.85;1.65;;;23.50;56.20;;;;;;4178395;28;20090;-47
2021/07/15 07:14:26;;;;;;;6.25;2.13;;;23.50;56.20;;;;;;4180324;28;20032;-48
2021/07/15 07:16:29;;;;;;;4.35;1.88;;;23.40;56.20;;;;;;4168713;28;20807;-47
2021/07/15 07:18:31;;;;;;;4.05;2.20;;;23.40;56.10;;;;;;4174887;28;20436;-45
2021/07/15 07:20:33;;;;;;;4.88;2.22;;;23.40;56.20;;;;;;4167984;28;20518;-49
2021/07/15 07:22:36;;;;;;;4.20;2.50;;;23.30;56.10;;;;;;4165355;28;20068;-48
2021/07/15 07:24:38;;;;;;;;;;;23.30;56.00;;;;;;4159550;28;20390;-47
2021/07/15 07:26:40;;;;;;;6.95;3.40;;;23.20;56.00;;;;;;4164157;28;19950;-48
2021/07/15 07:28:42;;;;;;;8.20;4.03;;;23.20;56.20;;;;;;4158245;28;20457;-54
2021/07/15 07:30:44;;;;;;;9.30;4.03;;;23.20;56.50;;;;;;4157638;28;20090;-50
2021/07/15 07:32:47;;;;;;;8.43;4.25;;;23.20;56.50;;;;;;4170471;28;20093;-51
2021/07/15 07:34:49;;;;;;;9.98;4.85;;;23.20;56.70;;;;;;4168901;28;20082;-50
2021/07/15 07:36:51;;;;;;;10.13;5.25;;;23.20;56.70;;;;;;4166229;28;20101;-48
2021/07/15 07:38:53;;;;;;;8.85;4.60;;;23.20;56.70;;;;;;4161452;28;20103;-47
2021/07/15 07:40:55;;;;;;;9.70;4.97;;;23.20;56.80;;;;;;4159660;28;20032;-50
2021/07/15 07:42:57;;;;;;;9.18;4.68;;;23.10;56.90;;;;;;4162533;28;20312;-48
2021/07/15 07:44:59;;;;;;;10.05;5.22;;;23.10;57.00;;;;;;4162365;28;20461;-49
2021/07/15 07:47:02;;;;;;;11.00;5.15;;;23.10;57.10;;;;;;4163073;28;20064;-50
2021/07/15 07:49:05;;;;;;;8.70;4.90;;;23.10;57.20;;;;;;4161942;28;20079;-54
2021/07/15 07:51:07;;;;;;;;;;;23.10;57.30;;;;;;4159023;28;20262;-48
2021/07/15 07:53:12;;;;;;;9.30;5.05;;;23.00;57.20;;;;;;4166128;28;19956;-48
2021/07/15 07:55:14;;;;;;;11.35;6.35;;;23.00;57.70;;;;;;4157153;28;20025;-54
2021/07/15 07:57:16;;;;;;;11.30;5.70;;;23.00;57.60;;;;;;4163205;28;20036;-54
2021/07/15 07:59:18;;;;;;;9.97;5.90;;;23.00;57.40;;;;;;4161492;28;20017;-53
2021/07/15 08:01:22;;;;;;;11.43;5.80;;;23.00;57.40;;;;;;4159284;28;20064;-53
2021/07/15 08:03:24;;;;;;;10.77;6.25;;;23.00;57.40;;;;;;4157872;28;20103;-53
2021/07/15 08:05:27;;;;;;;8.50;5.40;;;22.90;57.60;;;;;;4156537;28;20021;-53
2021/07/15 08:07:29;;;;;;;10.80;5.88;;;22.90;57.60;;;;;;4161518;28;20025;-50
2021/07/15 08:09:36;;;;;;;14.50;7.10;;;22.90;57.70;;;;;;4158926;28;20741;-51
2021/07/15 08:11:39;;;;;;;13.43;5.70;;;22.90;57.90;;;;;;4160228;28;20388;-51
2021/07/15 08:13:41;;;;;;;13.95;6.72;;;22.90;57.90;;;;;;4163331;28;20029;-53
2021/07/15 08:15:46;;;;;;;12.13;6.22;;;22.80;57.90;;;;;;4163965;28;20048;-53
2021/07/15 08:17:49;;;;;;;12.95;6.88;;;22.80;58.00;;;;;;4160187;28;20331;-49
2021/07/15 08:19:51;;;;;;;14.30;7.25;;;22.80;58.20;;;;;;4161241;28;20051;-49
2021/07/15 08:21:54;;;;;;;13.32;6.10;;;22.80;58.10;;;;;;4161457;28;20106;-48
2021/07/15 08:23:58;;;;;;;10.60;6.10;;;22.80;58.20;;;;;;4163844;28;20099;-50
2021/07/15 08:26:00;;;;;;;10.30;6.50;;;22.80;58.00;;;;;;4161406;28;20033;-45
2021/07/15 08:28:05;;;;;;;13.43;6.45;;;22.80;58.20;;;;;;4161708;28;20112;-49
2021/07/15 08:30:09;;;;;;;10.93;6.25;;;22.70;58.10;;;;;;4156335;28;20029;-46
2021/07/15 08:32:12;;;;;;;12.00;6.13;;;22.70;58.20;;;;;;4159275;28;20033;-49
2021/07/15 08:34:17;;;;;;;12.35;6.40;;;22.70;58.40;;;;;;4161904;28;20037;-49
2021/07/15 08:36:20;;;;;;;11.05;6.43;;;22.70;58.20;;;;;;4157695;28;20026;-50
2021/07/15 08:38:24;;;;;;;11.30;6.43;;;22.60;58.40;;;;;;4159941;28;20021;-50
2021/07/15 08:40:28;;;;;;;10.80;6.00;;;22.60;58.30;;;;;;4161501;28;20032;-49
2021/07/15 08:42:33;;;;;;;12.68;6.93;;;22.60;58.30;;;;;;4159547;28;20650;-47
2021/07/15 08:44:39;;;;;;;11.82;6.60;;;22.60;58.40;;;;;;4159484;28;20510;-45
2021/07/15 08:46:47;;;;;;;11.32;6.35;;;22.60;58.40;;;;;;4158145;28;20071;-48
2021/07/15 08:48:50;;;;;;;9.63;6.30;;;22.50;58.40;;;;;;4163032;28;20271;-53
2021/07/15 08:50:53;;;;;;;12.32;6.30;;;22.50;58.40;;;;;;4163554;28;20036;-46
2021/07/15 08:52:55;;;;;;;11.10;6.38;;;22.50;59.20;;;;;;4162090;28;20032;-48
2021/07/15 08:55:16;;;;;;;8.15;5.93;;;22.50;58.40;;;;;;4163591;28;20048;-48
2021/07/15 08:57:18;;;;;;;11.43;6.60;;;22.50;58.60;;;;;;4160511;28;20448;-46
2021/07/15 08:59:22;;;;;;;10.80;5.95;;;22.40;58.50;;;;;;4159471;28;20699;-48
2021/07/15 09:01:25;;;;;;;11.55;6.63;;;22.40;58.50;;;;;;4161680;28;20377;-53
2021/07/15 09:03:27;;;;;;;11.35;6.40;;;22.50;58.60;;;;;;4160666;28;20040;-48
2021/07/15 09:05:29;;;;;;;9.50;6.35;;;22.40;58.50;;;;;;4162734;28;20120;-49
2021/07/15 09:07:32;;;;;;;9.68;6.05;;;22.40;58.50;;;;;;4161580;28;20474;-49
2021/07/15 09:09:34;;;;;;;9.60;6.25;;;22.40;58.80;;;;;;4158047;28;20041;-47
2021/07/15 09:11:38;;;;;;;11.85;6.10;;;22.40;58.90;;;;;;4158665;28;20199;-52
2021/07/15 09:13:41;;;;;;;10.95;6.28;;;22.40;58.70;;;;;;4159140;28;20028;-49
2021/07/15 09:15:47;;;;;;;;;;;22.30;58.60;;;;;;4162729;28;20029;-53
2021/07/15 09:17:49;;;;;;;10.00;6.55;;;22.30;58.50;;;;;;4160256;28;19966;-47
2021/07/15 09:19:51;;;;;;;9.90;5.88;;;22.30;59.10;;;;;;4164068;28;20025;-49
2021/07/15 09:22:06;;;;;;;11.70;5.93;;;22.30;59.00;;;;;;4159559;28;20124;-53
2021/07/15 09:24:26;;;;;;;10.02;5.93;;;22.30;59.00;;;;;;4161674;28;20052;-45
2021/07/15 09:26:30;;;;;;;8.55;5.28;;;22.30;58.90;;;;;;4163039;28;20429;-50
2021/07/15 09:28:33;;;;;;;8.60;5.18;;;22.30;58.90;;;;;;4161808;28;20037;-48
2021/07/15 09:30:35;;;;;;;9.52;5.45;;;22.20;58.90;;;;;;4161019;28;20025;-49
2021/07/15 09:33:01;;;;;;;8.55;5.63;;;22.20;59.20;;;;;;4164979;28;20745;-46
2021/07/15 09:35:06;;;;;;;9.98;5.15;;;22.20;58.80;;;;;;4153440;28;20029;-44
2021/07/15 09:37:15;;;;;;;9.13;5.25;;;22.20;59.10;;;;;;4156312;28;20021;-49
2021/07/15 09:39:20;;;;;;;8.40;5.53;;;22.20;58.90;;;;;;4162886;28;20131;-49
2021/07/15 09:41:22;;;;;;;9.80;5.47;;;22.20;59.20;;;;;;4148729;28;20032;-47
2021/07/15 09:43:24;;;;;;;11.02;5.93;;;22.20;59.00;;;;;;4163221;28;20144;-43
2021/07/15 09:45:29;;;;;;;12.55;6.07;;;22.20;59.20;;;;;;4159177;28;20522;-48
2021/07/15 09:47:40;;;;;;;8.07;5.22;;;22.10;59.00;;;;;;4157675;28;20043;-46
2021/07/15 09:49:42;;;;;;;9.95;5.68;;;22.10;59.00;;;;;;4154579;28;20427;-44
2021/07/15 09:51:45;;;;;;;8.07;5.40;;;22.10;59.00;;;;;;4156664;28;20465;-48
2021/07/15 09:53:48;;;;;;;7.43;4.75;;;22.10;59.10;;;;;;4158313;28;20083;-47
2021/07/15 09:56:09;;;;;;;7.20;4.93;;;22.10;59.00;;;;;;4155127;28;20494;-48
2021/07/15 09:58:12;;;;;;;7.13;5.00;;;22.10;58.90;;;;;;4157754;28;20410;-45
2021/07/15 10:00:15;;;;;;;9.27;5.13;;;22.00;59.00;;;;;;4153073;28;20021;-47
2021/07/15 10:02:29;;;;;;;6.95;4.78;;;22.00;59.00;;;;;;4156656;28;20061;-48
2021/07/15 10:04:31;;;;;;;7.72;5.20;;;22.10;59.10;;;;;;4159453;28;20041;-48
2021/07/15 10:06:48;;;;;;;8.95;5.68;;;22.00;59.00;;;;;;4159388;28;20034;-47
2021/07/15 10:08:55;;;;;;;7.80;4.90;;;22.10;59.00;;;;;;4158634;28;20505;-46
2021/07/15 10:11:13;;;;;;;7.65;5.18;;;22.00;59.00;;;;;;4156499;28;20075;-45
2021/07/15 10:13:18;;;;;;;8.00;4.85;;;22.00;59.00;;;;;;4147573;28;20021;-45
2021/07/15 10:15:20;;;;;;;6.50;4.28;;;22.00;59.60;;;;;;4141367;28;20051;-45
2021/07/15 10:17:45;;;;;;;6.95;4.60;;;22.00;59.10;;;;;;4146917;28;20291;-46
2021/07/15 10:19:47;;;;;;;8.35;4.80;;;22.00;59.00;;;;;;4145991;28;20041;-47
2021/07/15 10:22:04;;;;;;;6.55;4.97;;;22.00;59.10;;;;;;4142984;28;20109;-45
2021/07/15 10:24:18;;;;;;;6.53;4.55;;;22.00;59.20;;;;;;4146229;28;20047;-47
2021/07/15 10:26:21;;;;;;;6.82;4.43;;;22.00;59.20;;;;;;4143595;28;20063;-49
2021/07/15 10:28:23;;;;;;;;;;;21.90;59.10;;;;;;4149681;28;20127;-47
2021/07/15 10:30:28;;;;;;;5.97;4.82;;;21.90;58.90;;;;;;4144469;28;19912;-48
2021/07/15 10:32:37;;;;;;;5.65;4.32;;;21.90;59.20;;;;;;4146591;28;20413;-50
2021/07/15 10:34:40;;;;;;;6.35;3.92;;;21.90;59.20;;;;;;4140821;28;20758;-50
2021/07/15 10:36:43;;;;;;;6.53;4.45;;;21.90;59.20;;;;;;4146770;28;20029;-46
2021/07/15 10:38:48;;;;;;;6.85;4.05;;;21.90;59.20;;;;;;4146133;28;20572;-45
2021/07/15 10:40:51;;;;;;;6.20;4.40;;;21.90;59.30;;;;;;4145490;28;21261;-48
2021/07/15 10:42:53;;;;;;;5.35;4.40;;;21.90;59.30;;;;;;4142283;28;20037;-45
2021/07/15 10:44:56;;;;;;;6.65;4.18;;;21.90;59.20;;;;;;4148381;28;20060;-50
2021/07/15 10:46:58;;;;;;;5.60;3.93;;;21.80;59.20;;;;;;4146642;28;20036;-45
2021/07/15 10:49:01;;;;;;;7.40;4.82;;;21.90;59.40;;;;;;4147395;28;20025;-48
2021/07/15 10:51:05;;;;;;;5.82;3.80;;;21.80;59.40;;;;;;4145817;28;20053;-49